createdAt,value
2018-05-09T00:01:29.595Z,46.60
2018-05-09T00:03:58.211Z,46.60
2018-05-09T00:06:26.815Z,46.70
2018-05-09T00:08:55.018Z,46.80
2018-05-09T00:11:23.215Z,46.70
2018-05-09T00:13:51.422Z,46.60
2018-05-09T00:16:19.607Z,46.60
2018-05-09T00:18:49.317Z,47.10
2018-05-09T00:21:17.523Z,46.50
2018-05-09T00:23:46.162Z,46.60
2018-05-09T00:26:14.388Z,46.50
2018-05-09T00:28:42.580Z,46.50
2018-05-09T00:31:11.158Z,46.50
2018-05-09T00:33:39.362Z,46.50
2018-05-09T00:36:07.558Z,46.50
2018-05-09T00:38:36.527Z,47.80
2018-05-09T00:41:04.723Z,46.90
2018-05-09T00:43:32.969Z,47.40
2018-05-09T00:46:01.551Z,46.60
2018-05-09T00:48:29.749Z,46.70
2018-05-09T00:50:57.946Z,46.70
2018-05-09T00:53:26.134Z,46.80
2018-05-09T00:55:54.337Z,47.10
2018-05-09T00:58:22.526Z,47.10
2018-05-09T01:00:51.137Z,46.70
2018-05-09T01:03:19.344Z,46.80
2018-05-09T01:05:47.945Z,46.70
2018-05-09T01:08:16.167Z,46.70
2018-05-09T01:10:44.755Z,46.70
2018-05-09T01:13:13.759Z,46.80
2018-05-09T01:15:41.974Z,46.80
2018-05-09T01:18:10.171Z,46.80
2018-05-09T01:20:38.362Z,46.80
2018-05-09T01:23:06.561Z,46.90
2018-05-09T01:25:34.746Z,46.80
2018-05-09T01:28:02.955Z,46.90
2018-05-09T01:30:31.174Z,46.80
2018-05-09T01:33:00.106Z,47.40
2018-05-09T01:35:28.731Z,46.70
2018-05-09T01:37:56.921Z,46.70
2018-05-09T01:40:25.191Z,46.70
2018-05-09T01:42:54.134Z,47.20
2018-05-09T01:45:22.338Z,46.70
2018-05-09T01:47:50.926Z,46.70
2018-05-09T01:50:19.115Z,46.70
2018-05-09T01:52:47.314Z,46.70
2018-05-09T01:55:15.537Z,46.60
2018-05-09T01:57:43.723Z,47.10
2018-05-09T02:00:11.915Z,47.10
2018-05-09T02:02:40.107Z,46.70
2018-05-09T02:05:08.717Z,46.70
2018-05-09T02:07:36.936Z,46.70
2018-05-09T02:10:05.127Z,46.70
2018-05-09T02:12:33.315Z,46.60
2018-05-09T02:15:01.507Z,46.60
2018-05-09T02:17:29.797Z,46.60
2018-05-09T02:19:58.673Z,47.20
2018-05-09T02:22:26.910Z,46.60
2018-05-09T02:24:55.114Z,46.60
2018-05-09T02:27:23.301Z,46.60
2018-05-09T02:29:51.498Z,46.70
2018-05-09T02:32:19.704Z,46.80
2018-05-09T02:34:47.910Z,46.70
2018-05-09T02:37:16.854Z,46.70
2018-05-09T02:39:45.099Z,46.70
2018-05-09T02:42:13.467Z,46.70
2018-05-09T02:44:41.754Z,46.70
2018-05-09T02:47:10.302Z,46.70
2018-05-09T02:49:38.596Z,46.60
2018-05-09T02:52:07.193Z,46.60
2018-05-09T02:54:35.395Z,46.60
2018-05-09T02:57:03.582Z,46.60
2018-05-09T02:59:31.775Z,46.60
2018-05-09T03:01:59.967Z,46.60
2018-05-09T03:04:28.162Z,46.60
2018-05-09T03:06:56.770Z,46.60
2018-05-09T03:09:24.969Z,46.70
2018-05-09T03:11:54.322Z,47.10
2018-05-09T03:14:23.281Z,47.10
2018-05-09T03:16:51.476Z,46.60
2018-05-09T03:19:20.066Z,46.60
2018-05-09T03:21:49.031Z,47.20
2018-05-09T03:24:17.229Z,46.60
2018-05-09T03:26:45.423Z,46.60
2018-05-09T03:29:13.611Z,46.60
2018-05-09T03:31:41.806Z,46.60
2018-05-09T03:34:09.998Z,46.60
2018-05-09T03:36:38.195Z,46.50
2018-05-09T03:39:06.394Z,46.50
2018-05-09T03:41:34.593Z,46.60
2018-05-09T03:44:02.786Z,46.50
2018-05-09T03:46:30.987Z,46.50
2018-05-09T03:48:59.946Z,47.20
2018-05-09T03:51:28.143Z,46.50
2018-05-09T03:53:56.343Z,46.50
2018-05-09T03:56:24.939Z,46.50
2018-05-09T03:58:53.154Z,46.50
2018-05-09T04:01:21.356Z,46.50
2018-05-09T04:04:01.347Z,46.50
2018-05-09T04:06:41.434Z,46.50
2018-05-09T04:09:21.932Z,46.50
2018-05-09T04:11:50.127Z,46.50
2018-05-09T04:14:18.332Z,46.40
2018-05-09T04:16:47.307Z,46.40
2018-05-09T04:19:15.888Z,46.40
2018-05-09T04:21:44.086Z,46.30
2018-05-09T04:24:13.042Z,46.30
2018-05-09T04:26:41.667Z,46.20
2018-05-09T04:29:09.872Z,46.20
2018-05-09T04:31:38.060Z,46.10
2018-05-09T04:34:06.258Z,46.10
2018-05-09T04:36:34.456Z,46.20
2018-05-09T04:39:03.057Z,46.10
2018-05-09T04:41:31.651Z,46.10
2018-05-09T04:44:00.238Z,46.00
2018-05-09T04:46:29.198Z,46.50
2018-05-09T04:48:57.392Z,45.90
2018-05-09T04:51:25.595Z,46.00
2018-05-09T04:53:53.792Z,45.90
2018-05-09T04:56:21.989Z,45.90
2018-05-09T04:58:50.182Z,45.90
2018-05-09T05:01:19.142Z,46.40
2018-05-09T05:03:47.351Z,45.80
2018-05-09T05:06:15.954Z,45.80
2018-05-09T05:08:44.552Z,45.80
2018-05-09T05:11:13.523Z,46.20
2018-05-09T05:13:41.777Z,45.70
2018-05-09T05:16:09.934Z,45.50
2018-05-09T05:18:38.427Z,45.50
2018-05-09T05:21:07.347Z,45.30
2018-05-09T05:23:35.535Z,45.30
2018-05-09T05:26:04.862Z,45.80
2018-05-09T05:28:33.861Z,45.30
2018-05-09T05:31:02.051Z,45.10
2018-05-09T05:33:30.640Z,45.10
2018-05-09T05:35:58.846Z,45.10
2018-05-09T05:38:27.802Z,45.10
2018-05-09T05:40:56.404Z,45.10
2018-05-09T05:43:24.990Z,45.00
2018-05-09T05:45:53.588Z,45.00
2018-05-09T05:48:22.566Z,44.90
2018-05-09T05:50:50.758Z,44.90
2018-05-09T05:53:18.950Z,45.00
2018-05-09T05:55:47.138Z,45.00
2018-05-09T05:58:16.098Z,44.90
2018-05-09T06:00:44.709Z,45.00
2018-05-09T06:03:12.879Z,44.90
2018-05-09T06:05:41.066Z,45.00
2018-05-09T06:08:09.283Z,45.00
2018-05-09T06:10:38.262Z,45.00
2018-05-09T06:13:06.435Z,45.00
2018-05-09T06:15:34.639Z,44.90
2018-05-09T06:18:03.226Z,44.90
2018-05-09T06:20:32.194Z,45.90
2018-05-09T06:23:01.156Z,47.10
2018-05-09T06:25:29.347Z,47.40
2018-05-09T06:27:58.331Z,48.20
2018-05-09T06:30:27.295Z,48.60
2018-05-09T06:32:55.794Z,48.10
2018-05-09T06:35:24.382Z,48.30
2018-05-09T06:37:53.372Z,47.50
2018-05-09T06:40:21.967Z,47.60
2018-05-09T06:42:50.163Z,47.50
2018-05-09T06:45:18.770Z,47.20
2018-05-09T06:47:46.974Z,47.30
2018-05-09T06:50:15.187Z,46.80
2018-05-09T06:52:43.378Z,47.50
2018-05-09T06:55:11.980Z,46.90
2018-05-09T06:57:40.212Z,47.70
2018-05-09T07:00:08.408Z,48.80
2018-05-09T07:02:37.023Z,47.50
2018-05-09T07:05:05.622Z,47.30
2018-05-09T07:07:33.814Z,46.50
2018-05-09T07:10:02.802Z,46.50
2018-05-09T07:12:31.797Z,46.60
2018-05-09T07:14:59.987Z,46.60
2018-05-09T07:17:28.178Z,46.30
2018-05-09T07:19:56.416Z,45.80
2018-05-09T07:22:24.591Z,45.90
2018-05-09T07:24:52.782Z,46.00
2018-05-09T07:27:20.983Z,46.00
2018-05-09T07:29:49.942Z,46.20
2018-05-09T07:32:18.135Z,45.70
2018-05-09T07:34:46.747Z,45.80
2018-05-09T07:37:14.954Z,45.80
2018-05-09T07:39:43.914Z,46.10
2018-05-09T07:42:13.684Z,46.20
2018-05-09T07:44:41.827Z,45.20
2018-05-09T07:47:10.443Z,45.10
2018-05-09T07:49:38.635Z,44.80
2018-05-09T07:52:07.227Z,45.00
2018-05-09T07:54:35.430Z,45.20
2018-05-09T07:57:03.630Z,45.60
2018-05-09T07:59:31.870Z,45.60
2018-05-09T08:02:00.459Z,45.30
2018-05-09T08:04:29.051Z,45.60
2018-05-09T08:06:58.028Z,46.20
2018-05-09T08:09:26.206Z,45.60
2018-05-09T08:11:55.179Z,45.00
2018-05-09T08:14:23.372Z,44.10
2018-05-09T08:16:51.574Z,44.90
2018-05-09T08:19:19.763Z,43.60
2018-05-09T08:21:47.975Z,44.10
2018-05-09T08:24:16.171Z,43.40
2018-05-09T08:26:44.754Z,44.00
2018-05-09T08:29:13.351Z,43.40
2018-05-09T08:31:41.555Z,42.90
2018-05-09T08:34:09.754Z,43.70
2018-05-09T08:36:37.973Z,42.90
2018-05-09T08:39:06.938Z,43.40
2018-05-09T08:41:35.127Z,43.10
2018-05-09T08:44:03.393Z,43.20
2018-05-09T08:46:31.524Z,39.80
2018-05-09T08:48:59.734Z,41.00
2018-05-09T08:51:28.702Z,40.60
2018-05-09T08:53:56.903Z,41.60
2018-05-09T08:56:25.867Z,41.50
2018-05-09T08:58:54.078Z,39.80
2018-05-09T09:01:23.103Z,39.00
2018-05-09T09:03:51.299Z,40.10
2018-05-09T09:06:19.522Z,39.20
2018-05-09T09:08:47.698Z,39.30
2018-05-09T09:11:15.918Z,39.10
2018-05-09T09:13:45.266Z,39.30
2018-05-09T09:16:13.464Z,39.30
2018-05-09T09:18:42.883Z,40.20
2018-05-09T09:21:11.011Z,38.40
2018-05-09T09:23:39.613Z,37.50
2018-05-09T09:26:07.847Z,36.40
2018-05-09T09:28:36.140Z,36.80
2018-05-09T09:31:04.347Z,37.50
2018-05-09T09:33:32.567Z,37.10
2018-05-09T09:36:01.167Z,36.40
2018-05-09T09:38:29.780Z,36.20
2018-05-09T09:40:58.366Z,36.70
2018-05-09T09:43:26.573Z,37.30
2018-05-09T09:45:54.772Z,36.30
2018-05-09T09:48:22.968Z,36.50
2018-05-09T09:50:51.170Z,37.30
2018-05-09T09:53:19.374Z,38.00
2018-05-09T09:55:47.571Z,37.50
2018-05-09T09:58:16.546Z,38.00
2018-05-09T10:00:44.743Z,37.80
2018-05-09T10:03:12.943Z,38.30
2018-05-09T10:05:41.146Z,37.60
2018-05-09T10:08:09.461Z,38.10
2018-05-09T10:10:37.988Z,38.20
2018-05-09T10:13:06.594Z,37.80
2018-05-09T10:15:34.800Z,37.90
2018-05-09T10:18:03.431Z,37.70
2018-05-09T10:20:31.647Z,36.70
2018-05-09T10:23:00.662Z,37.50
2018-05-09T10:25:29.632Z,36.30
2018-05-09T10:27:57.926Z,35.90
2018-05-09T10:30:26.126Z,35.30
2018-05-09T10:32:54.327Z,36.30
2018-05-09T10:35:23.288Z,35.30
2018-05-09T10:37:51.483Z,35.70
2018-05-09T10:40:19.719Z,35.10
2018-05-09T10:42:47.915Z,34.50
2018-05-09T10:45:16.888Z,35.30
2018-05-09T10:47:45.091Z,34.90
2018-05-09T10:50:13.398Z,33.40
2018-05-09T10:52:41.611Z,33.30
2018-05-09T10:55:09.838Z,32.30
2018-05-09T10:57:38.044Z,34.20
2018-05-09T11:00:06.259Z,34.70
2018-05-09T11:02:35.235Z,34.10
2018-05-09T11:05:03.570Z,34.00
2018-05-09T11:07:31.659Z,32.90
2018-05-09T11:10:00.252Z,33.70
2018-05-09T11:12:28.442Z,32.00
2018-05-09T11:14:57.409Z,30.50
2018-05-09T11:17:25.611Z,31.10
2018-05-09T11:19:54.213Z,31.20
2018-05-09T11:22:22.658Z,31.20
2018-05-09T11:24:51.238Z,31.60
2018-05-09T11:27:19.434Z,32.60
2018-05-09T11:29:47.643Z,33.20
2018-05-09T11:32:15.863Z,33.50
2018-05-09T11:34:44.458Z,33.30
2018-05-09T11:37:13.426Z,36.30
2018-05-09T11:39:42.399Z,35.90
2018-05-09T11:42:11.386Z,39.30
2018-05-09T11:44:40.019Z,39.70
2018-05-09T11:47:08.225Z,40.20
2018-05-09T11:49:36.427Z,40.30
2018-05-09T11:52:05.394Z,39.60
2018-05-09T11:54:33.622Z,37.60
2018-05-09T11:57:01.826Z,39.30
2018-05-09T11:59:30.039Z,39.70
2018-05-09T12:01:58.251Z,39.50
2018-05-09T12:04:26.462Z,39.30
2018-05-09T12:06:54.687Z,40.40
2018-05-09T12:09:22.895Z,40.20
2018-05-09T12:11:51.103Z,40.40
2018-05-09T12:14:19.481Z,40.70
2018-05-09T12:16:48.451Z,41.20
2018-05-09T12:19:16.872Z,40.10
2018-05-09T12:21:45.223Z,40.30
2018-05-09T12:24:13.428Z,40.70
2018-05-09T12:26:41.641Z,39.60
2018-05-09T12:29:09.858Z,40.80
2018-05-09T12:31:38.844Z,41.50
2018-05-09T12:34:07.047Z,39.80
2018-05-09T12:36:35.255Z,40.20
2018-05-09T12:39:03.470Z,39.60
2018-05-09T12:41:31.678Z,38.60
2018-05-09T12:43:59.903Z,39.00
2018-05-09T12:46:28.909Z,37.80
2018-05-09T12:48:57.109Z,39.40
2018-05-09T12:51:25.303Z,40.60
2018-05-09T12:53:53.899Z,38.90
2018-05-09T12:56:22.115Z,38.10
2018-05-09T12:58:50.745Z,37.70
2018-05-09T13:01:29.118Z,38.80
2018-05-09T13:03:57.332Z,42.50
2018-05-09T13:06:25.954Z,37.50
2018-05-09T13:08:54.935Z,37.60
2018-05-09T13:11:23.147Z,36.30
2018-05-09T13:13:51.751Z,35.20
2018-05-09T13:16:20.172Z,35.50
2018-05-09T13:18:48.789Z,37.70
2018-05-09T13:21:16.998Z,40.90
2018-05-09T13:23:45.216Z,41.60
2018-05-09T13:26:14.189Z,42.20
2018-05-09T13:28:42.787Z,41.60
2018-05-09T13:31:14.044Z,41.90
2018-05-09T13:33:43.115Z,42.30
2018-05-09T13:36:11.738Z,42.40
2018-05-09T13:38:39.942Z,41.70
2018-05-09T13:41:08.162Z,41.30
2018-05-09T13:43:36.359Z,40.90
2018-05-09T13:46:04.637Z,41.10
2018-05-09T13:48:32.791Z,40.90
2018-05-09T13:51:01.159Z,41.70
2018-05-09T13:53:29.362Z,41.20
2018-05-09T13:55:57.583Z,42.30
2018-05-09T13:58:25.809Z,41.90
2018-05-09T14:00:54.023Z,41.70
2018-05-09T14:03:22.235Z,41.50
2018-05-09T14:05:50.446Z,41.40
2018-05-09T14:08:19.805Z,42.20
2018-05-09T14:10:48.411Z,42.40
2018-05-09T14:13:16.624Z,42.40
2018-05-09T14:15:44.827Z,41.90
2018-05-09T14:18:13.055Z,41.20
2018-05-09T14:20:41.311Z,41.00
2018-05-09T14:23:09.527Z,41.20
2018-05-09T14:25:37.750Z,41.10
2018-05-09T14:28:05.959Z,40.70
2018-05-09T14:30:34.159Z,40.40
2018-05-09T14:33:02.363Z,40.60
2018-05-09T14:35:31.335Z,40.10
2018-05-09T14:38:00.311Z,40.80
2018-05-09T14:40:28.511Z,39.20
2018-05-09T14:42:57.482Z,39.60
2018-05-09T14:45:25.683Z,40.60
2018-05-09T14:47:54.659Z,41.70
2018-05-09T14:50:23.654Z,41.60
2018-05-09T14:52:51.854Z,41.20
2018-05-09T14:55:20.055Z,40.90
2018-05-09T14:57:48.274Z,40.60
2018-05-09T15:00:16.966Z,41.50
2018-05-09T15:02:45.146Z,41.10
2018-05-09T15:05:14.126Z,41.30
2018-05-09T15:07:42.328Z,41.50
2018-05-09T15:10:10.572Z,41.20
2018-05-09T15:12:39.543Z,41.50
2018-05-09T15:15:08.157Z,41.90
2018-05-09T15:17:37.122Z,42.50
2018-05-09T15:20:05.328Z,42.10
2018-05-09T15:22:33.946Z,41.40
2018-05-09T15:25:02.174Z,40.90
2018-05-09T15:27:30.394Z,42.30
2018-05-09T15:29:58.598Z,42.90
2018-05-09T15:32:26.823Z,42.20
2018-05-09T15:34:55.392Z,42.80
2018-05-09T15:37:24.043Z,41.70
2018-05-09T15:39:52.267Z,42.20
2018-05-09T15:42:20.483Z,43.40
2018-05-09T15:44:48.712Z,42.80
2018-05-09T15:47:17.670Z,41.60
2018-05-09T15:49:45.885Z,42.10
2018-05-09T15:52:14.107Z,43.30
2018-05-09T15:54:42.315Z,42.40
2018-05-09T15:57:10.559Z,42.70
2018-05-09T15:59:39.150Z,43.00
2018-05-09T16:02:08.114Z,43.60
2018-05-09T16:04:36.326Z,42.10
2018-05-09T16:07:04.678Z,43.60
2018-05-09T16:09:33.279Z,44.20
2018-05-09T16:12:01.493Z,45.60
2018-05-09T16:14:32.736Z,45.40
2018-05-09T16:17:00.943Z,46.90
2018-05-09T16:19:29.350Z,47.20
2018-05-09T16:21:58.345Z,49.30
2018-05-09T16:24:26.586Z,49.40
2018-05-09T16:26:55.192Z,48.80
2018-05-09T16:29:23.455Z,49.40
2018-05-09T16:31:51.660Z,50.90
2018-05-09T16:34:19.859Z,50.20
2018-05-09T16:36:49.224Z,51.10
2018-05-09T16:39:18.222Z,51.30
2018-05-09T16:41:47.197Z,51.30
2018-05-09T16:44:16.175Z,51.10
2018-05-09T16:46:44.371Z,51.10
2018-05-09T16:49:13.344Z,51.80
2018-05-09T16:51:41.936Z,52.30
2018-05-09T16:54:10.147Z,50.90
2018-05-09T16:56:38.384Z,51.10
2018-05-09T16:59:06.588Z,50.40
2018-05-09T17:01:35.277Z,49.50
2018-05-09T17:04:04.147Z,49.70
2018-05-09T17:06:32.755Z,49.90
2018-05-09T17:09:00.956Z,50.10
2018-05-09T17:11:29.915Z,49.90
2018-05-09T17:13:58.110Z,49.40
2018-05-09T17:16:26.310Z,49.80
2018-05-09T17:18:54.515Z,52.00
2018-05-09T17:21:35.160Z,53.50
2018-05-09T17:24:03.772Z,53.80
2018-05-09T17:26:31.978Z,53.30
2018-05-09T17:29:00.916Z,53.00
2018-05-09T17:31:29.091Z,53.50
2018-05-09T17:33:57.702Z,52.70
2018-05-09T17:36:26.315Z,53.40
2018-05-09T17:38:54.525Z,54.20
2018-05-09T17:41:22.734Z,53.10
2018-05-09T17:43:50.949Z,52.70
2018-05-09T17:46:19.151Z,51.80
2018-05-09T17:48:48.944Z,52.00
2018-05-09T17:51:17.139Z,51.40
2018-05-09T17:53:45.351Z,52.00
2018-05-09T17:56:13.561Z,52.60
2018-05-09T17:58:41.815Z,53.00
2018-05-09T18:01:10.440Z,53.50
2018-05-09T18:03:38.594Z,53.70
2018-05-09T18:06:06.799Z,54.60
2018-05-09T18:08:35.765Z,54.70
2018-05-09T18:11:04.729Z,54.20
2018-05-09T18:13:32.987Z,55.00
2018-05-09T18:16:01.196Z,56.00
2018-05-09T18:18:29.831Z,53.10
2018-05-09T18:20:58.049Z,49.30
2018-05-09T18:23:26.231Z,47.40
2018-05-09T18:25:54.451Z,46.60
2018-05-09T18:28:22.662Z,46.10
2018-05-09T18:30:50.970Z,45.90
2018-05-09T18:33:19.550Z,45.70
2018-05-09T18:35:47.748Z,45.60
2018-05-09T18:38:15.959Z,45.50
2018-05-09T18:40:44.178Z,45.50
2018-05-09T18:43:12.364Z,45.90
2018-05-09T18:45:41.328Z,46.80
2018-05-09T18:48:09.533Z,46.70
2018-05-09T18:50:37.750Z,47.20
2018-05-09T18:53:06.003Z,47.30
2018-05-09T18:55:34.600Z,47.60
2018-05-09T18:58:02.811Z,58.00
2018-05-09T19:00:31.406Z,61.60
2018-05-09T19:03:00.019Z,63.40
2018-05-09T19:05:28.660Z,63.20
2018-05-09T19:07:57.268Z,63.70
2018-05-09T19:10:25.554Z,63.50
2018-05-09T19:12:54.246Z,63.80
2018-05-09T19:15:22.893Z,64.60
2018-05-09T19:17:53.227Z,65.30
2018-05-09T19:20:22.234Z,66.40
2018-05-09T19:22:50.835Z,65.80
2018-05-09T19:25:19.034Z,66.10
2018-05-09T19:27:47.242Z,65.70
2018-05-09T19:30:15.450Z,66.00
2018-05-09T19:32:43.676Z,66.60
2018-05-09T19:35:11.899Z,66.80
2018-05-09T19:37:40.134Z,66.40
2018-05-09T19:40:08.757Z,66.60
2018-05-09T19:42:36.970Z,66.80
2018-05-09T19:45:05.582Z,66.80
2018-05-09T19:47:34.575Z,67.40
2018-05-09T19:50:03.551Z,58.00
2018-05-09T19:52:32.151Z,53.50
2018-05-09T19:55:01.160Z,52.20
2018-05-09T19:57:29.330Z,50.70
2018-05-09T19:59:57.527Z,50.20
2018-05-09T20:02:25.727Z,50.70
2018-05-09T20:04:54.342Z,49.70
2018-05-09T20:07:23.951Z,49.50
2018-05-09T20:09:52.152Z,49.50
2018-05-09T20:12:20.396Z,49.40
2018-05-09T20:14:48.976Z,49.20
2018-05-09T20:17:17.161Z,49.20
2018-05-09T20:19:45.365Z,49.10
2018-05-09T20:22:13.592Z,49.00
2018-05-09T20:24:41.835Z,48.90
2018-05-09T20:27:10.268Z,48.80
2018-05-09T20:29:38.486Z,48.60
2018-05-09T20:32:19.314Z,48.40
2018-05-09T20:34:47.532Z,48.40
2018-05-09T20:37:15.739Z,48.20
2018-05-09T20:39:44.728Z,48.70
2018-05-09T20:42:12.926Z,48.20
2018-05-09T20:44:41.130Z,48.10
2018-05-09T20:47:09.351Z,48.10
2018-05-09T20:49:37.607Z,48.10
2018-05-09T20:52:05.810Z,48.10
2018-05-09T20:54:34.011Z,48.60
2018-05-09T20:57:02.231Z,47.90
2018-05-09T20:59:30.852Z,47.90
2018-05-09T21:01:59.191Z,48.00
2018-05-09T21:04:27.384Z,48.00
2018-05-09T21:06:55.648Z,48.00
2018-05-09T21:09:23.852Z,47.80
2018-05-09T21:12:03.715Z,47.80
2018-05-09T21:14:31.973Z,47.80
2018-05-09T21:17:00.134Z,47.90
2018-05-09T21:19:28.348Z,47.80
2018-05-09T21:21:56.958Z,47.70
2018-05-09T21:24:25.597Z,47.70
2018-05-09T21:26:54.208Z,47.60
2018-05-09T21:29:22.402Z,47.50
2018-05-09T21:31:50.645Z,47.60
2018-05-09T21:34:18.811Z,47.50
2018-05-09T21:36:47.794Z,48.10
2018-05-09T21:39:15.986Z,47.60
2018-05-09T21:41:44.242Z,48.00
2018-05-09T21:44:12.446Z,47.50
2018-05-09T21:46:40.648Z,47.50
2018-05-09T21:49:08.864Z,47.40
2018-05-09T21:51:37.067Z,47.50
2018-05-09T21:54:05.251Z,47.50
2018-05-09T21:56:33.487Z,47.50
2018-05-09T21:59:01.693Z,47.40
2018-05-09T22:01:29.910Z,48.00
2018-05-09T22:03:58.107Z,47.40
2018-05-09T22:06:26.302Z,47.50
2018-05-09T22:08:54.517Z,48.00
2018-05-09T22:11:22.706Z,47.90
2018-05-09T22:13:50.939Z,47.80
2018-05-09T22:16:19.158Z,47.30
2018-05-09T22:18:47.509Z,47.30
2018-05-09T22:21:15.710Z,47.30
2018-05-09T22:23:43.917Z,47.40
2018-05-09T22:26:12.115Z,47.40
2018-05-09T22:28:40.494Z,47.30
2018-05-09T22:31:08.697Z,47.40
2018-05-09T22:33:36.903Z,47.30
2018-05-09T22:36:05.117Z,47.30
2018-05-09T22:38:33.319Z,47.20
2018-05-09T22:41:01.529Z,47.20
2018-05-09T22:43:29.758Z,47.80
2018-05-09T22:45:57.930Z,47.30
2018-05-09T22:48:26.139Z,47.20
2018-05-09T22:50:54.347Z,47.80
2018-05-09T22:53:22.554Z,47.80
2018-05-09T22:55:50.747Z,47.30
2018-05-09T22:58:18.961Z,47.30
2018-05-09T23:00:47.163Z,47.30
2018-05-09T23:03:15.382Z,47.30
2018-05-09T23:05:43.574Z,47.80
2018-05-09T23:08:11.767Z,47.30
2018-05-09T23:10:40.043Z,47.80
2018-05-09T23:13:08.255Z,47.30
2018-05-09T23:15:36.487Z,47.30
2018-05-09T23:18:04.695Z,47.30
2018-05-09T23:20:33.295Z,47.20
2018-05-09T23:23:01.490Z,47.20
2018-05-09T23:25:29.708Z,47.30
2018-05-09T23:27:57.936Z,47.20
2018-05-09T23:30:26.752Z,47.20
2018-05-09T23:32:54.963Z,47.20
2018-05-09T23:35:23.922Z,47.80
2018-05-09T23:37:52.135Z,47.20
2018-05-09T23:40:20.334Z,47.10
2018-05-09T23:42:49.291Z,47.60
2018-05-09T23:45:17.492Z,47.10
2018-05-09T23:47:45.690Z,47.10
2018-05-09T23:50:13.897Z,47.00
2018-05-09T23:52:42.097Z,47.00
2018-05-09T23:55:10.311Z,47.10
2018-05-09T23:57:38.589Z,47.10
